Terminal Aerodrome Forecast
Issued by NWS North Platte, NE

Home | Current Version | Previous Version | Graphics & Text | Print | Product List | Glossary On
Versions: 1 2 3 4 5 6 7 8 9 10 11 12 13 14 15 16 17 18 19 20 21 22
000
FTUS43 KLBF 271328 AAB
TAFVTN
TAF AMD
KVTN 271328Z 2713/2812 00000KT 1/4SM FG VV002
      TEMPO 2713/2715 3SM BR
     FM271500 VRB03KT 5SM BR BKN005
     FM271700 15005KT P6SM SCT040
     FM271900 14010KT P6SM SCT250
     FM280000 13012KT P6SM BKN250
     FM280900 13010KT P6SM BKN100=

USA.gov is the U.S. government's official web portal to all federal, state and local government web resources and services.